Time;durP1;ratioP1;P1;durP2;ratioP2;P2;SDS_P1;SDS_P2;PMS_P1;PMS_P2;Temp;Humidity;BMP_temperature;BMP_pressure;BME280_temperature;BME280_humidity;BME280_pressure;Samples;Min_cycle;Max_cycle;Signal;HPM_P1;HPM_P2
2022/06/29 00:02:08;;;;;;;3.43;2.37;;;;;;;20.36;100.00;100083.91;5004356;28;20613;-78
2022/06/29 00:04:33;;;;;;;2.53;2.13;;;;;;;20.29;100.00;100093.06;5011657;28;20576;-79
2022/06/29 00:07:02;;;;;;;2.27;2.00;;;;;;;20.22;100.00;100084.66;5005234;28;20223;-76
2022/06/29 00:09:30;;;;;;;2.37;1.97;;;;;;;20.18;100.00;100084.91;5000845;28;20275;-75
2022/06/29 00:11:56;;;;;;;2.20;2.10;;;;;;;20.12;100.00;100079.97;5004163;28;20184;-76
2022/06/29 00:14:21;;;;;;;2.23;2.03;;;;;;;20.08;100.00;100085.38;5023666;28;20222;-76
2022/06/29 00:16:47;;;;;;;2.43;2.20;;;;;;;20.05;100.00;100075.03;5006119;28;20191;-76
2022/06/29 00:19:12;;;;;;;2.20;2.00;;;;;;;20.03;100.00;100078.66;5023205;28;20242;-75
2022/06/29 00:21:38;;;;;;;2.50;2.30;;;;;;;19.97;100.00;100071.09;5005341;28;20198;-76
2022/06/29 00:24:03;;;;;;;1.90;1.80;;;;;;;19.92;100.00;100073.97;5006959;28;20236;-76
2022/06/29 00:26:29;;;;;;;3.50;2.40;;;;;;;19.86;100.00;100075.09;5011165;28;20199;-76
2022/06/29 00:28:54;;;;;;;3.20;2.13;;;;;;;19.79;100.00;100085.06;5004507;28;20219;-76
2022/06/29 00:31:19;;;;;;;2.07;1.97;;;;;;;19.73;100.00;100079.28;5005244;28;20206;-76
2022/06/29 00:33:45;;;;;;;2.40;2.20;;;;;;;19.70;100.00;100082.91;5004619;28;20214;-77
2022/06/29 00:36:11;;;;;;;2.13;2.03;;;;;;;19.69;100.00;100082.97;5022221;28;20691;-76
2022/06/29 00:38:36;;;;;;;2.77;2.50;;;;;;;19.66;100.00;100073.50;5000749;28;20188;-76
2022/06/29 00:41:02;;;;;;;2.77;2.53;;;;;;;19.62;100.00;100071.94;5006075;28;20683;-77
2022/06/29 00:43:27;;;;;;;2.30;2.20;;;;;;;19.60;100.00;100068.53;5020306;28;20714;-77
2022/06/29 00:45:53;;;;;;;2.93;2.67;;;;;;;19.58;100.00;100060.75;5024822;28;20195;-76
2022/06/29 00:48:19;;;;;;;2.80;2.60;;;;;;;19.59;100.00;100058.97;5005145;28;20186;-76
2022/06/29 00:50:46;;;;;;;2.77;2.17;;;;;;;19.60;100.00;100060.66;5030236;28;20687;-77
2022/06/29 00:53:14;;;;;;;2.67;2.27;;;;;;;19.61;100.00;100064.97;5009463;28;20199;-77
2022/06/29 00:55:41;;;;;;;2.60;2.40;;;;;;;19.58;100.00;100066.00;5006933;28;20214;-78
2022/06/29 00:58:09;;;;;;;3.70;2.30;;;;;;;19.59;100.00;100066.84;5018753;28;20190;-76
2022/06/29 01:00:35;;;;;;;2.57;2.37;;;;;;;19.58;100.00;100057.28;5007052;28;20324;-76
2022/06/29 01:03:01;;;;;;;2.80;2.60;;;;;;;19.57;100.00;100058.22;5010842;28;20187;-77
2022/06/29 01:05:31;;;;;;;2.77;2.40;;;;;;;19.58;100.00;100057.28;5005983;28;20209;-77
2022/06/29 01:07:58;;;;;;;2.23;2.13;;;;;;;19.56;100.00;100054.72;5004023;28;20186;-77
2022/06/29 01:10:24;;;;;;;2.80;2.33;;;;;;;19.56;100.00;100054.72;4999996;28;20212;-77
2022/06/29 01:12:51;;;;;;;2.33;2.13;;;;;;;19.56;100.00;100053.88;5018974;28;20202;-77
2022/06/29 01:15:17;;;;;;;1.97;1.83;;;;;;;19.54;100.00;100053.94;5009511;28;20207;-77
2022/06/29 01:17:43;;;;;;;4.40;2.30;;;;;;;19.55;100.00;100055.66;5004972;28;20285;-77
2022/06/29 01:20:10;;;;;;;2.40;2.20;;;;;;;19.56;100.00;100053.88;5005495;28;20254;-75
2022/06/29 01:22:36;;;;;;;2.60;2.40;;;;;;;19.55;100.00;100050.41;5003077;28;20205;-75
2022/06/29 01:25:01;;;;;;;2.93;2.30;;;;;;;19.56;100.00;100049.47;5013051;28;20210;-77
2022/06/29 01:27:26;;;;;;;3.17;2.30;;;;;;;19.57;100.00;100048.53;5004533;28;20210;-75
2022/06/29 01:29:52;;;;;;;2.50;2.30;;;;;;;19.56;100.00;100054.72;5002570;28;20691;-76
2022/06/29 01:32:19;;;;;;;2.73;2.13;;;;;;;19.58;100.00;100052.88;4998498;28;20244;-77
2022/06/29 01:34:48;;;;;;;2.40;2.20;;;;;;;19.60;100.00;100047.53;5003534;28;20217;-76
2022/06/29 01:37:14;;;;;;;2.17;2.07;;;;;;;19.61;100.00;100036.09;5006234;28;20190;-77
2022/06/29 01:39:40;;;;;;;2.40;2.20;;;;;;;19.62;100.00;100041.31;5003517;28;20199;-78
2022/06/29 01:42:06;;;;;;;2.40;2.20;;;;;;;19.63;100.00;100043.00;5028333;28;20203;-78
2022/06/29 01:44:33;;;;;;;3.33;2.00;;;;;;;19.65;100.00;100043.78;5001302;28;20348;-77
2022/06/29 01:46:59;;;;;;;2.10;2.00;;;;;;;19.65;100.00;100038.53;5007798;28;20221;-77
2022/06/29 01:49:25;;;;;;;2.43;2.27;;;;;;;19.64;100.00;100036.81;5006323;28;20217;-78
2022/06/29 01:51:50;;;;;;;2.40;2.27;;;;;;;19.67;100.00;100034.94;5024731;28;20191;-77
2022/06/29 01:54:16;;;;;;;2.30;2.20;;;;;;;19.69;100.00;100036.59;5012076;28;20212;-76
2022/06/29 01:56:42;;;;;;;2.53;2.33;;;;;;;19.71;100.00;100031.25;5012532;28;20676;-75
2022/06/29 01:59:07;;;;;;;1.90;1.80;;;;;;;19.72;100.00;100031.19;5007477;28;20199;-77
2022/06/29 02:01:33;;;;;;;2.53;2.33;;;;;;;19.72;100.00;100019.81;5006440;28;20190;-76
2022/06/29 02:03:58;;;;;;;2.53;2.37;;;;;;;19.71;100.00;100026.00;5007755;28;20226;-76
2022/06/29 02:06:25;;;;;;;2.60;2.40;;;;;;;19.71;100.00;100029.47;5008514;28;20195;-76
2022/06/29 02:08:51;;;;;;;3.07;2.80;;;;;;;19.67;100.00;100024.44;5010722;28;20206;-76
2022/06/29 02:11:16;;;;;;;3.03;2.83;;;;;;;19.65;100.00;100021.91;5005698;28;20183;-75
2022/06/29 02:13:42;;;;;;;2.90;2.67;;;;;;;19.62;100.00;100024.69;5005031;28;20239;-75
2022/06/29 02:16:08;;;;;;;2.80;2.60;;;;;;;19.62;100.00;100019.44;5004101;28;20196;-76
2022/06/29 02:18:33;;;;;;;3.17;2.90;;;;;;;19.63;100.00;100019.38;5019458;28;20209;-76
2022/06/29 02:20:58;;;;;;;3.00;2.80;;;;;;;19.64;100.00;100010.56;5012078;28;20685;-77
2022/06/29 02:23:24;;;;;;;3.40;3.10;;;;;;;19.67;100.00;100020.06;5024573;28;20257;-77
2022/06/29 02:25:49;;;;;;;3.47;3.20;;;;;;;19.70;100.00;100013.78;5005372;28;20188;-76
2022/06/29 02:28:15;;;;;;;3.10;2.90;;;;;;;19.72;100.00;100017.19;5009242;28;20191;-77
2022/06/29 02:36:08;;;;;;;3.60;3.40;;;;;;;19.76;100.00;100010.88;5006707;28;20203;-77
2022/06/29 02:38:34;;;;;;;3.20;3.00;;;;;;;19.76;100.00;100018.75;5008171;28;20188;-76
2022/06/29 02:41:00;;;;;;;3.30;3.00;;;;;;;19.77;100.00;100012.56;5008301;28;20184;-76
2022/06/29 02:43:25;;;;;;;3.23;2.93;;;;;;;19.79;100.00;100022.03;5005663;28;20256;-77
2022/06/29 02:45:51;;;;;;;3.27;3.07;;;;;;;19.82;100.00;100022.81;5010109;28;20193;-78
2022/06/29 02:48:16;;;;;;;3.20;3.00;;;;;;;19.83;100.00;100020.09;5009705;28;20191;-75
2022/06/29 02:50:42;;;;;;;3.13;2.93;;;;;;;19.84;100.00;100027.06;5003487;28;20197;-77
2022/06/29 02:53:07;;;;;;;2.87;2.67;;;;;;;19.83;100.00;100016.66;5019016;28;20211;-76
2022/06/29 02:55:33;;;;;;;3.00;2.80;;;;;;;19.83;100.00;100017.47;5007102;28;20245;-77
2022/06/29 02:57:58;;;;;;;2.90;2.77;;;;;;;19.83;100.00;100019.28;5021104;28;20920;-78
2022/06/29 03:00:24;;;;;;;2.90;2.70;;;;;;;19.81;100.00;100016.72;5005855;28;20202;-76
2022/06/29 03:02:49;;;;;;;2.63;2.40;;;;;;;19.79;100.00;100019.41;5011369;28;20215;-77
2022/06/29 03:05:14;;;;;;;2.93;2.73;;;;;;;19.77;100.00;100016.03;5022733;28;20258;-77
2022/06/29 03:07:40;;;;;;;2.77;2.57;;;;;;;19.75;100.00;100011.78;5024700;28;20682;-77
2022/06/29 03:10:05;;;;;;;3.00;2.80;;;;;;;19.73;100.00;100014.50;5018428;28;20229;-77
2022/06/29 03:12:31;;;;;;;2.87;2.67;;;;;;;19.70;100.00;100011.16;5001708;28;20176;-76
2022/06/29 03:14:56;;;;;;;2.87;2.67;;;;;;;19.65;100.00;100014.03;5007815;28;20210;-77
2022/06/29 03:17:21;;;;;;;2.83;2.63;;;;;;;19.62;100.00;100014.19;5007516;28;20202;-77
2022/06/29 03:19:47;;;;;;;2.80;2.60;;;;;;;19.58;100.00;100012.66;5020926;28;20245;-78
2022/06/29 03:22:12;;;;;;;3.03;2.83;;;;;;;19.54;100.00;100011.13;5006745;28;20191;-77
2022/06/29 03:24:39;;;;;;;3.50;3.20;;;;;;;19.47;100.00;100008.78;5019454;28;20301;-77
2022/06/29 03:27:05;;;;;;;2.70;2.50;;;;;;;19.43;100.00;100002.03;5008947;28;20220;-77
2022/06/29 03:29:30;;;;;;;2.90;2.70;;;;;;;19.39;100.00;100010.09;5005584;28;20218;-77
2022/06/29 03:31:55;;;;;;;3.40;3.17;;;;;;;19.32;100.00;100013.06;5010116;28;20180;-76
2022/06/29 03:34:21;;;;;;;3.10;2.90;;;;;;;19.28;100.00;100008.03;5009268;28;20322;-77
2022/06/29 03:36:46;;;;;;;3.53;3.23;;;;;;;19.25;100.00;100008.19;5007891;28;20194;-75
2022/06/29 03:39:12;;;;;;;3.03;2.87;;;;;;;19.26;100.00;100005.47;5011939;28;20322;-78
2022/06/29 03:41:37;;;;;;;3.10;2.90;;;;;;;19.26;100.00;100004.63;5008926;28;20280;-77
2022/06/29 03:44:03;;;;;;;3.03;2.80;;;;;;;19.26;100.00;100005.47;5011919;28;20218;-75
2022/06/29 03:46:29;;;;;;;3.43;3.23;;;;;;;19.26;100.00;100002.84;5004721;28;20239;-76
2022/06/29 03:48:54;;;;;;;3.37;3.17;;;;;;;19.26;100.00;100012.50;5019975;28;20911;-77
2022/06/29 03:51:19;;;;;;;3.40;3.20;;;;;;;19.26;100.00;100013.34;5004766;28;20705;-77
2022/06/29 03:53:45;;;;;;;3.23;3.03;;;;;;;19.25;100.00;100009.03;5005992;28;20235;-77
2022/06/29 03:56:10;;;;;;;3.90;3.60;;;;;;;19.24;100.00;100011.72;5002739;28;20769;-76
2022/06/29 03:58:36;;;;;;;3.53;3.30;;;;;;;19.22;100.00;100017.03;5009712;28;20665;-76
2022/06/29 04:01:01;;;;;;;4.33;3.90;;;;;;;19.21;100.00;100022.38;5021047;28;20847;-77
2022/06/29 04:03:26;;;;;;;3.27;3.00;;;;;;;19.18;100.00;100016.34;5005423;28;20564;-77
2022/06/29 04:05:52;;;;;;;3.33;3.10;;;;;;;19.18;100.00;100012.88;5002453;28;20227;-76
2022/06/29 04:08:17;;;;;;;3.60;3.00;;;;;;;19.17;100.00;100003.31;4999139;28;20178;-77
2022/06/29 04:10:43;;;;;;;3.43;3.13;;;;;;;19.17;100.00;100014.66;5009894;28;20213;-76
2022/06/29 04:13:08;;;;;;;3.30;3.10;;;;;;;19.18;100.00;100005.84;5002740;28;20191;-75
2022/06/29 04:15:35;;;;;;;3.03;2.83;;;;;;;19.20;100.00;100013.66;5004046;28;20236;-77
2022/06/29 04:18:01;;;;;;;3.23;3.03;;;;;;;19.22;100.00;100016.19;5013963;28;20391;-76
2022/06/29 04:23:11;;;;;;;5.00;3.40;;;;;;;19.29;100.00;100012.34;5003237;28;20209;-77
2022/06/29 04:25:36;;;;;;;3.40;3.10;;;;;;;19.34;100.00;100015.59;5005900;28;20202;-77
2022/06/29 04:28:02;;;;;;;3.20;3.00;;;;;;;19.41;100.00;100010.88;5022766;28;20199;-76
2022/06/29 04:30:28;;;;;;;3.60;3.30;;;;;;;19.46;100.00;100009.72;5002354;28;20239;-77
2022/06/29 04:32:54;;;;;;;3.60;3.30;;;;;;;19.53;100.00;100012.03;5006293;28;20192;-76
2022/06/29 04:35:20;;;;;;;3.43;3.23;;;;;;;19.61;100.00;100015.97;5004912;28;20211;-77
2022/06/29 04:37:46;;;;;;;3.40;3.10;;;;;;;19.70;100.00;100011.16;5006718;28;20190;-77
2022/06/29 04:40:11;;;;;;;4.13;3.70;;;;;;;19.77;100.00;100017.81;5005352;28;20179;-77
2022/06/29 04:42:37;;;;;;;3.73;3.43;;;;;;;19.86;100.00;100025.19;4999454;28;20182;-78
2022/06/29 04:45:02;;;;;;;4.00;3.70;;;;;;;19.97;100.00;100016.81;5005611;28;20307;-77
2022/06/29 04:47:28;;;;;;;4.40;4.10;;;;;;;20.08;100.00;100014.44;5004888;28;20191;-76
2022/06/29 04:49:53;;;;;;;4.00;3.70;;;;;;;20.18;100.00;100021.84;4991269;28;20200;-76
2022/06/29 04:52:19;;;;;;;4.13;3.83;;;;;;;20.27;100.00;100017.88;5001414;28;20366;-76
2022/06/29 04:54:45;;;;;;;4.20;3.80;;;;;;;20.35;100.00;100028.81;5000075;28;20227;-77
2022/06/29 04:57:10;;;;;;;4.37;4.07;;;;;;;20.43;100.00;100028.41;5002163;28;20199;-76
2022/06/29 04:59:35;;;;;;;4.53;4.17;;;;;;;20.49;100.00;100023.66;5018396;28;20183;-76
2022/06/29 05:02:01;;;;;;;4.50;4.10;;;;;;;20.54;100.00;100021.63;5008414;28;20180;-77
2022/06/29 05:04:26;;;;;;;4.33;4.03;;;;;;;20.60;100.00;100033.59;5011753;28;20208;-77
2022/06/29 05:06:52;;;;;;;4.23;3.93;;;;;;;20.67;100.00;100034.94;5001292;28;20284;-77
2022/06/29 05:09:20;;;;;;;4.50;4.13;;;;;;;20.75;100.00;100033.69;4997518;28;20208;-76
2022/06/29 05:11:46;;;;;;;4.57;4.27;;;;;;;20.83;100.00;100036.75;5020763;28;20233;-76
2022/06/29 05:14:12;;;;;;;4.00;3.80;;;;;;;20.94;100.00;100034.38;5021466;28;20247;-76
2022/06/29 05:16:38;;;;;;;4.30;4.00;;;;;;;21.12;100.00;100035.13;5013088;28;20271;-76
2022/06/29 05:19:04;;;;;;;4.40;3.70;;;;;;;21.39;100.00;100028.34;5003424;28;20683;-76
2022/06/29 05:21:30;;;;;;;3.87;3.50;;;;;;;21.66;100.00;100027.69;5000072;28;20199;-77
2022/06/29 05:23:56;;;;;;;3.90;3.70;;;;;;;21.86;100.00;100029.94;5025780;28;20226;-75
2022/06/29 05:26:22;;;;;;;3.90;3.60;;;;;;;22.51;100.00;100023.38;5007701;28;20663;-77
2022/06/29 05:28:48;;;;;;;3.37;3.17;;;;;;;23.64;100.00;100019.63;5006830;28;20185;-76
2022/06/29 05:31:13;;;;;;;3.30;3.10;;;;;;;25.14;100.00;100022.28;5013484;28;20198;-76
2022/06/29 05:33:39;;;;;;;3.40;3.10;;;;;;;26.52;96.67;100024.19;5009158;28;20191;-77
2022/06/29 05:36:08;;;;;;;3.37;3.07;;;;;;;27.71;92.04;100027.69;5021170;28;20192;-77
2022/06/29 05:38:34;;;;;;;3.63;3.30;;;;;;;28.67;86.94;100019.38;5012408;28;20359;-76
2022/06/29 05:41:02;;;;;;;3.40;3.20;;;;;;;29.39;85.28;100021.84;5024818;28;20267;-77
2022/06/29 05:43:30;;;;;;;3.47;3.17;;;;;;;30.19;82.96;100031.28;5007682;28;20207;-77
2022/06/29 05:45:55;;;;;;;3.40;3.10;;;;;;;30.86;81.32;100020.34;5023270;28;20318;-76
2022/06/29 05:48:21;;;;;;;2.93;2.73;;;;;;;31.52;80.03;100033.44;5006385;28;20663;-75
2022/06/29 05:50:46;;;;;;;3.30;3.00;;;;;;;32.13;76.78;100022.75;5003181;28;20193;-76
2022/06/29 05:53:12;;;;;;;3.23;2.97;;;;;;;32.50;76.26;100026.94;5008163;28;20216;-75
2022/06/29 05:55:37;;;;;;;2.80;2.60;;;;;;;32.99;75.66;100023.53;5004400;28;20286;-75
2022/06/29 05:58:02;;;;;;;2.30;2.20;;;;;;;33.49;74.44;100018.16;5005920;28;20164;-76
2022/06/29 06:00:28;;;;;;;2.78;2.60;;;;;;;33.94;72.05;100027.47;5021783;28;20187;-75
2022/06/29 06:02:53;;;;;;;2.70;2.50;;;;;;;34.15;69.86;100021.50;5008381;28;20176;-78
2022/06/29 06:05:19;;;;;;;2.42;2.22;;;;;;;34.26;68.50;100022.94;5007038;28;20480;-76
2022/06/29 06:07:44;;;;;;;2.90;2.70;;;;;;;34.24;68.15;100016.94;5009535;28;20196;-76
2022/06/29 06:10:10;;;;;;;3.10;2.88;;;;;;;34.28;68.02;100017.41;4998500;28;20284;-77
2022/06/29 06:12:35;;;;;;;4.70;2.53;;;;;;;34.41;68.29;100020.38;5013874;28;20187;-76
2022/06/29 06:15:01;;;;;;;2.83;2.63;;;;;;;34.62;67.10;100009.00;4998947;28;20196;-77
2022/06/29 06:17:28;;;;;;;3.15;2.90;;;;;;;34.71;66.84;100008.97;5003014;28;20207;-77
2022/06/29 06:19:58;;;;;;;2.92;2.40;;;;;;;34.81;67.22;100006.88;5004119;28;20546;-75
2022/06/29 06:22:23;;;;;;;2.60;2.40;;;;;;;35.12;66.79;100016.72;5008072;28;20212;-76
2022/06/29 06:24:49;;;;;;;2.70;2.50;;;;;;;35.23;66.52;100013.59;5004465;28;20971;-76
2022/06/29 06:27:14;;;;;;;3.78;2.60;;;;;;;35.32;66.35;100014.34;5011756;28;20188;-77
2022/06/29 06:29:40;;;;;;;2.95;2.40;;;;;;;35.49;66.43;100006.16;5001136;28;20206;-76
2022/06/29 06:32:06;;;;;;;2.65;2.15;;;;;;;35.67;66.06;100009.31;5022934;28;20181;-77
2022/06/29 06:34:31;;;;;;;2.47;1.90;;;;;;;35.94;65.96;100007.00;5003211;28;20192;-75
2022/06/29 06:36:59;;;;;;;2.55;2.20;;;;;;;36.14;64.33;100003.75;5014893;28;20258;-78
2022/06/29 06:39:25;;;;;;;2.60;2.50;;;;;;;36.11;64.72;99999.53;5017694;28;20660;-78
2022/06/29 06:41:53;;;;;;;2.17;2.08;;;;;;;36.23;64.94;100004.47;5009035;28;20624;-76
2022/06/29 06:44:18;;;;;;;2.67;2.10;;;;;;;36.43;64.82;100010.91;5019082;28;20269;-76
2022/06/29 06:46:48;;;;;;;2.30;2.10;;;;;;;36.58;64.31;100012.72;5006039;28;20660;-76
2022/06/29 06:49:15;;;;;;;2.50;2.30;;;;;;;36.76;63.63;100012.28;5001808;28;20287;-76
2022/06/29 06:51:40;;;;;;;2.65;2.45;;;;;;;36.66;63.05;100019.84;4997860;28;20219;-75
2022/06/29 06:54:06;;;;;;;2.45;2.25;;;;;;;36.53;63.11;100020.56;5007977;28;20661;-77
2022/06/29 06:56:31;;;;;;;2.50;2.40;;;;;;;36.23;62.88;100018.75;5005710;28;20192;-75
2022/06/29 06:58:56;;;;;;;2.65;2.45;;;;;;;36.20;63.22;100012.91;4997081;28;20287;-75
2022/06/29 07:01:22;;;;;;;2.30;2.20;;;;;;;36.20;63.00;100011.03;5005457;28;20230;-76
2022/06/29 07:03:47;;;;;;;2.90;2.58;;;;;;;36.15;63.63;100011.63;5004911;28;20223;-75
2022/06/29 07:06:13;;;;;;;2.38;2.17;;;;;;;35.75;63.97;100013.78;5019719;28;20184;-78
2022/06/29 07:08:39;;;;;;;3.13;2.58;;;;;;;35.07;64.03;100013.72;4999504;28;20538;-75
2022/06/29 07:11:06;;;;;;;2.50;2.30;;;;;;;34.33;65.28;100023.94;5003938;28;20657;-77
2022/06/29 07:13:35;;;;;;;3.15;2.50;;;;;;;33.64;66.76;100024.50;5004593;28;20247;-77
2022/06/29 07:16:04;;;;;;;3.28;2.60;;;;;;;33.07;68.03;100020.00;5006254;28;20192;-77
2022/06/29 07:18:31;;;;;;;4.00;2.47;;;;;;;32.72;69.50;100016.59;4999972;28;20180;-77
2022/06/29 07:20:57;;;;;;;2.58;2.38;;;;;;;32.51;70.20;100021.41;5003292;28;20260;-77
2022/06/29 07:23:23;;;;;;;3.83;3.08;;;;;;;32.32;70.91;100019.00;5013246;28;20295;-76
2022/06/29 07:25:48;;;;;;;3.20;2.63;;;;;;;32.28;70.38;100015.81;5004413;28;20188;-76
2022/06/29 07:28:14;;;;;;;2.42;2.22;;;;;;;32.27;70.76;100018.69;5006098;28;20188;-76
2022/06/29 07:30:39;;;;;;;2.58;2.38;;;;;;;32.30;70.61;100019.19;5007335;28;20208;-76
2022/06/29 07:33:05;;;;;;;2.40;2.20;;;;;;;32.06;71.25;100019.88;5006127;28;20200;-76
2022/06/29 07:35:30;;;;;;;3.72;2.17;;;;;;;31.77;71.86;100013.06;5013191;28;20295;-76
2022/06/29 07:37:56;;;;;;;2.40;2.20;;;;;;;31.61;72.06;100019.97;5011022;28;20184;-77
2022/06/29 07:40:21;;;;;;;2.63;2.42;;;;;;;31.48;72.57;100012.34;5004730;28;20185;-76
2022/06/29 07:42:47;;;;;;;2.50;2.30;;;;;;;31.28;72.98;100013.56;5015708;28;20188;-76
2022/06/29 07:45:13;;;;;;;2.47;2.28;;;;;;;31.12;72.87;100014.22;5006673;28;20259;-76
2022/06/29 07:47:39;;;;;;;2.60;2.40;;;;;;;30.83;73.81;100018.00;5007997;28;20192;-76
2022/06/29 07:50:06;;;;;;;3.22;2.72;;;;;;;30.66;73.67;100019.66;5011782;28;20250;-76
2022/06/29 07:52:33;;;;;;;3.25;3.00;;;;;;;30.35;74.92;100020.78;5004813;28;20180;-76
2022/06/29 07:55:01;;;;;;;2.40;2.20;;;;;;;30.22;75.37;100033.66;5007020;28;20204;-77
2022/06/29 07:57:27;;;;;;;2.63;2.43;;;;;;;30.09;75.67;100018.84;5014156;28;20598;-79
2022/06/29 07:59:52;;;;;;;2.70;2.50;;;;;;;30.11;75.96;100024.00;5020065;28;20286;-76
2022/06/29 08:02:17;;;;;;;2.93;2.47;;;;;;;30.23;76.09;100024.66;5009820;28;20215;-77
2022/06/29 08:04:43;;;;;;;2.70;2.50;;;;;;;30.36;75.94;100011.81;5003970;28;20342;-77
2022/06/29 08:07:09;;;;;;;2.53;2.33;;;;;;;30.54;75.20;100016.34;5011059;28;20187;-76
2022/06/29 08:09:34;;;;;;;2.60;2.40;;;;;;;30.60;75.17;100020.25;5005920;28;20228;-76
2022/06/29 08:12:00;;;;;;;2.97;2.77;;;;;;;30.67;74.93;100022.19;5006610;28;20219;-76
2022/06/29 08:14:25;;;;;;;2.95;2.75;;;;;;;30.67;75.02;100016.84;5014853;28;20204;-76
2022/06/29 08:16:50;;;;;;;3.15;2.38;;;;;;;30.89;74.78;100020.06;5008473;28;20207;-76
2022/06/29 08:19:16;;;;;;;2.63;2.43;;;;;;;31.37;74.12;100017.13;5004915;28;20184;-76
2022/06/29 08:21:41;;;;;;;3.42;2.40;;;;;;;31.75;73.61;100020.41;5020288;28;20608;-76
2022/06/29 08:24:07;;;;;;;3.28;2.40;;;;;;;31.82;73.18;100016.13;5019648;28;20266;-76
2022/06/29 08:26:32;;;;;;;4.18;2.58;;;;;;;31.77;73.02;100021.09;5005753;28;20207;-76
2022/06/29 08:28:57;;;;;;;2.92;2.67;;;;;;;31.66;73.47;100021.34;5023993;28;20198;-76
2022/06/29 08:31:23;;;;;;;2.40;2.22;;;;;;;31.63;73.45;100017.97;4997782;28;20678;-77
2022/06/29 08:33:49;;;;;;;3.47;2.60;;;;;;;31.86;72.68;100013.94;5009689;28;20691;-76
2022/06/29 08:36:14;;;;;;;3.25;2.95;;;;;;;31.93;72.25;100015.81;5006251;28;20576;-76
2022/06/29 08:38:40;;;;;;;2.60;2.40;;;;;;;31.85;72.35;100013.09;5005508;28;20196;-75
2022/06/29 08:41:05;;;;;;;3.03;2.70;;;;;;;31.76;72.13;100014.91;5023288;28;20186;-77
2022/06/29 08:43:32;;;;;;;3.63;2.95;;;;;;;31.66;72.23;100016.81;5009813;28;20184;-76
2022/06/29 08:45:57;;;;;;;3.03;2.83;;;;;;;31.54;72.74;100018.91;5021010;28;20198;-76
2022/06/29 08:48:23;;;;;;;2.58;2.38;;;;;;;31.53;72.93;100021.75;5008349;28;20263;-75
2022/06/29 08:50:53;;;;;;;3.15;2.42;;;;;;;31.44;73.59;100020.84;5000697;28;21255;-76
2022/06/29 08:53:20;;;;;;;2.67;2.47;;;;;;;31.27;73.59;100026.06;5003386;28;20207;-76
2022/06/29 08:55:48;;;;;;;4.95;2.58;;;;;;;31.05;74.17;100022.03;5004565;28;20825;-77
2022/06/29 08:58:17;;;;;;;2.80;2.60;;;;;;;30.83;73.62;100026.84;5003558;28;20189;-76
2022/06/29 09:00:42;;;;;;;2.90;2.70;;;;;;;30.70;74.81;100029.06;5001798;28;20531;-76
2022/06/29 09:03:08;;;;;;;2.58;2.47;;;;;;;30.67;74.79;100022.19;5000407;28;20235;-76
2022/06/29 09:05:34;;;;;;;2.83;2.50;;;;;;;30.63;75.09;100028.81;5007999;28;20604;-76
2022/06/29 09:08:00;;;;;;;2.57;2.47;;;;;;;30.61;75.36;100033.47;5019885;28;20758;-76
2022/06/29 09:10:29;;;;;;;2.45;2.35;;;;;;;30.58;75.63;100028.44;5003727;28;20668;-76
2022/06/29 09:12:57;;;;;;;2.50;2.30;;;;;;;30.55;75.71;100034.91;5007206;28;20247;-76
2022/06/29 09:15:34;;;;;;;2.80;2.60;;;;;;;30.52;75.44;100027.19;5024465;28;20200;-77
2022/06/29 09:18:02;;;;;;;3.13;2.77;;;;;;;30.50;75.44;100028.28;4998776;28;20861;-75
2022/06/29 09:20:41;;;;;;;3.07;2.80;;;;;;;30.41;75.88;100028.22;5000972;28;20587;-75
2022/06/29 09:23:09;;;;;;;2.73;2.53;;;;;;;30.40;76.08;100026.53;5002676;28;20188;-76
2022/06/29 09:25:41;;;;;;;2.63;2.43;;;;;;;30.40;76.50;100028.38;5010557;28;20207;-75
2022/06/29 09:28:29;;;;;;;2.80;2.60;;;;;;;30.34;76.56;100019.13;5019204;28;20188;-76
2022/06/29 09:30:56;;;;;;;2.63;2.42;;;;;;;30.28;76.77;100035.75;4998155;28;20212;-77
2022/06/29 09:33:26;;;;;;;2.78;2.50;;;;;;;30.24;76.80;100032.53;5018933;28;20211;-75
2022/06/29 09:36:08;;;;;;;2.60;2.50;;;;;;;30.24;77.07;100029.00;5004066;28;20223;-76
2022/06/29 09:38:34;;;;;;;3.10;2.83;;;;;;;30.16;76.72;100028.94;5007693;28;20188;-76
2022/06/29 09:41:03;;;;;;;3.53;2.97;;;;;;;30.07;76.21;100027.97;5004077;28;20742;-76
2022/06/29 09:43:30;;;;;;;3.23;2.93;;;;;;;29.90;77.26;100029.53;5002824;28;20671;-75
2022/06/29 09:45:56;;;;;;;2.93;2.73;;;;;;;29.85;77.24;100031.81;5000518;28;20184;-76
2022/06/29 09:48:24;;;;;;;2.97;2.77;;;;;;;29.86;77.13;100028.19;5008139;28;20570;-74
2022/06/29 09:50:53;;;;;;;2.80;2.60;;;;;;;29.95;76.82;100029.97;4999820;28;20212;-76
2022/06/29 09:53:24;;;;;;;3.10;2.60;;;;;;;30.17;76.57;100019.94;4998706;28;20712;-78
2022/06/29 09:55:53;;;;;;;2.60;2.50;;;;;;;30.52;75.82;100018.31;5018916;28;20196;-75
2022/06/29 09:58:33;;;;;;;2.90;2.70;;;;;;;30.99;74.64;100014.63;4999023;28;20265;-79
2022/06/29 10:04:01;;;;;;;2.60;2.40;;;;;;;31.61;71.83;100008.44;5004873;28;20722;-75
2022/06/29 10:06:28;;;;;;;3.65;2.50;;;;;;;31.62;69.97;100010.94;5003642;28;20193;-75
2022/06/29 10:08:54;;;;;;;2.60;2.40;;;;;;;31.39;68.96;100007.97;5014406;28;20207;-75
2022/06/29 10:14:35;;;;;;;2.97;2.10;;;;;;;30.26;71.54;100011.84;4999589;28;20866;-76
2022/06/29 10:17:12;;;;;;;2.40;2.20;;;;;;;29.85;72.67;100007.81;5017426;28;20176;-75
2022/06/29 10:20:03;;;;;;;2.30;2.10;;;;;;;29.61;74.07;100017.13;5006005;28;20223;-76
2022/06/29 10:22:29;;;;;;;2.37;2.17;;;;;;;29.44;74.09;100010.75;5034678;28;20203;-75
2022/06/29 10:25:03;;;;;;;2.17;1.97;;;;;;;29.37;74.12;100013.13;5006552;28;20679;-75
2022/06/29 10:27:28;;;;;;;2.43;2.23;;;;;;;29.37;73.97;100017.59;5001407;28;20196;-75
2022/06/29 10:30:23;;;;;;;2.40;2.27;;;;;;;29.46;73.95;100009.59;5003961;28;20266;-77
2022/06/29 10:32:50;;;;;;;1.97;1.77;;;;;;;29.57;73.94;100015.78;5003999;28;20246;-76
2022/06/29 10:35:15;;;;;;;2.30;2.20;;;;;;;29.75;73.55;100011.34;5005865;28;20208;-77
2022/06/29 10:37:52;;;;;;;2.43;2.07;;;;;;;29.98;73.18;100007.50;5004306;28;20187;-76
2022/06/29 10:40:20;;;;;;;3.67;2.30;;;;;;;30.24;73.08;100002.31;4996340;28;20187;-77
2022/06/29 10:45:39;;;;;;;3.30;2.63;;;;;;;30.83;71.79;99996.63;5003164;28;20262;-75
2022/06/29 10:48:06;;;;;;;2.40;2.20;;;;;;;31.07;70.99;100000.50;5005862;28;20245;-77
2022/06/29 10:50:33;;;;;;;2.53;2.10;;;;;;;31.26;70.47;99999.50;5010861;28;20563;-76
2022/06/29 10:53:04;;;;;;;2.03;1.87;;;;;;;31.37;69.20;100001.09;5009635;28;20196;-76
2022/06/29 10:55:30;;;;;;;3.17;2.08;;;;;;;31.47;69.06;99999.16;5008377;28;20714;-75
2022/06/29 10:57:58;;;;;;;2.65;1.88;;;;;;;31.52;68.51;99998.69;5006932;28;20191;-77
2022/06/29 11:00:28;;;;;;;2.28;1.90;;;;;;;31.62;69.14;100000.25;5022090;28;20176;-77
2022/06/29 11:02:54;;;;;;;2.73;2.20;;;;;;;31.69;68.40;99999.63;5006384;28;20478;-77
2022/06/29 11:05:20;;;;;;;2.78;2.20;;;;;;;31.70;67.71;99996.81;5011078;28;20210;-77
2022/06/29 11:13:24;;;;;;;2.10;2.00;;;;;;;31.76;68.09;99988.16;5002154;28;20188;-77
2022/06/29 11:15:55;;;;;;;2.15;1.92;;;;;;;31.76;67.97;99993.50;5020561;28;20204;-76
2022/06/29 11:18:26;;;;;;;2.58;2.00;;;;;;;31.71;67.46;99992.28;5000074;28;20596;-76
2022/06/29 11:20:53;;;;;;;2.17;2.00;;;;;;;31.73;66.88;99990.31;5003164;28;20272;-76
2022/06/29 11:23:27;;;;;;;1.80;1.70;;;;;;;31.73;67.56;99990.31;4998075;28;20188;-77
2022/06/29 11:25:54;;;;;;;1.87;1.70;;;;;;;31.69;67.28;99981.72;5005909;28;20203;-76
2022/06/29 11:28:42;;;;;;;1.63;1.52;;;;;;;31.59;66.10;99976.50;5003033;28;20192;-76
2022/06/29 11:31:12;;;;;;;2.13;1.90;;;;;;;31.45;66.22;99977.06;5016209;28;20215;-77
2022/06/29 11:33:49;;;;;;;1.83;1.70;;;;;;;31.15;66.59;99971.19;5007911;28;20315;-76
2022/06/29 11:36:24;;;;;;;1.80;1.70;;;;;;;30.95;67.78;99967.84;5008390;28;20188;-77
2022/06/29 11:38:54;;;;;;;2.67;1.75;;;;;;;30.79;68.21;99956.03;5007235;28;20211;-77
2022/06/29 11:43:03;;;;;;;1.83;1.70;;;;;;;30.61;68.01;99955.19;5008236;28;20193;-76
2022/06/29 11:44:24;;;;;;;1.90;1.80;;;;;;;30.48;69.54;99961.72;5008721;28;20212;-76